Time;durP1;ratioP1;P1;durP2;ratioP2;P2;SDS_P1;SDS_P2;PMS_P1;PMS_P2;Temp;Humidity;BMP_temperature;BMP_pressure;BME280_temperature;BME280_humidity;BME280_pressure;Samples;Min_cycle;Max_cycle;Signal;HPM_P1;HPM_P2
2021/11/14 00:00:50;;;;;;;4.88;2.72;;;10.00;94.70;;;;;;5026724;28;20505;-83
2021/11/14 00:03:17;;;;;;;5.25;2.10;;;10.10;94.70;;;;;;5046605;28;20051;-82
2021/11/14 00:05:45;;;;;;;5.57;2.78;;;10.00;94.60;;;;;;5029942;28;20052;-83
2021/11/14 00:08:14;;;;;;;4.72;2.38;;;10.00;94.70;;;;;;5045291;28;20131;-82
2021/11/14 00:10:44;;;;;;;5.15;2.40;;;10.00;94.70;;;;;;5006648;28;20049;-78
2021/11/14 00:13:12;;;;;;;4.93;2.47;;;10.00;94.70;;;;;;5026675;28;20560;-78
2021/11/14 00:15:39;;;;;;;5.47;2.00;;;10.00;94.70;;;;;;5043676;28;20500;-78
2021/11/14 00:18:07;;;;;;;3.90;2.22;;;9.90;94.70;;;;;;5026932;28;20580;-80
2021/11/14 00:20:35;;;;;;;3.95;2.03;;;9.90;94.70;;;;;;5045005;28;20055;-79
2021/11/14 00:23:03;;;;;;;4.10;1.90;;;9.90;94.70;;;;;;5039547;28;20432;-79
2021/11/14 00:25:30;;;;;;;4.90;2.30;;;9.90;94.80;;;;;;5013898;28;20069;-79
2021/11/14 00:28:02;;;;;;;4.07;1.80;;;10.00;94.70;;;;;;5042112;28;20040;-79
2021/11/14 00:30:38;;;;;;;4.20;1.88;;;9.90;94.70;;;;;;5032394;28;20033;-79
2021/11/14 00:33:07;;;;;;;3.92;1.63;;;9.90;94.80;;;;;;5047792;28;20106;-79
2021/11/14 00:35:34;;;;;;;3.13;1.50;;;9.90;94.80;;;;;;5044685;28;20087;-79
2021/11/14 00:38:01;;;;;;;4.13;2.03;;;9.80;94.80;;;;;;5011824;28;20079;-79
2021/11/14 00:40:31;;;;;;;3.97;1.70;;;9.80;94.80;;;;;;5031289;28;20049;-78
2021/11/14 00:43:00;;;;;;;3.58;1.38;;;9.80;94.80;;;;;;5035276;28;20041;-79
2021/11/14 00:45:28;;;;;;;3.97;1.50;;;9.80;94.70;;;;;;5032036;28;20041;-79
2021/11/14 00:47:56;;;;;;;4.25;1.65;;;9.80;95.00;;;;;;5040369;28;20488;-78
2021/11/14 00:50:23;;;;;;;3.83;1.77;;;9.80;94.70;;;;;;5038148;28;20041;-78
2021/11/14 00:52:50;;;;;;;4.40;1.90;;;9.80;94.70;;;;;;5026498;28;20135;-78
2021/11/14 00:55:19;;;;;;;3.13;1.60;;;9.80;95.00;;;;;;5025019;28;21648;-78
2021/11/14 00:57:47;;;;;;;3.92;1.83;;;9.80;94.80;;;;;;5026550;28;20095;-79
2021/11/14 01:00:22;;;;;;;6.05;1.88;;;9.80;94.80;;;;;;5045068;28;20073;-79
2021/11/14 01:02:49;;;;;;;4.35;1.60;;;9.70;94.70;;;;;;5043530;28;20037;-78
2021/11/14 01:05:18;;;;;;;5.18;2.15;;;9.70;94.80;;;;;;5030624;28;20033;-78
2021/11/14 01:07:45;;;;;;;4.78;2.40;;;9.60;94.80;;;;;;5027167;28;20040;-79
2021/11/14 01:10:15;;;;;;;3.65;1.67;;;9.60;94.80;;;;;;5032125;28;20044;-79
2021/11/14 01:12:43;;;;;;;3.55;1.52;;;9.60;94.80;;;;;;5032286;28;20512;-79
2021/11/14 01:15:11;;;;;;;4.45;1.52;;;9.60;94.80;;;;;;5045174;28;20136;-79
2021/11/14 01:17:39;;;;;;;5.70;2.30;;;9.60;94.80;;;;;;5027867;28;20037;-78
2021/11/14 01:20:10;;;;;;;3.90;1.73;;;9.60;94.80;;;;;;5027505;28;20072;-79
2021/11/14 01:22:37;;;;;;;4.95;2.35;;;9.50;94.80;;;;;;5047018;28;20485;-79
2021/11/14 01:25:05;;;;;;;3.92;2.05;;;9.60;94.90;;;;;;5013219;28;20041;-79
2021/11/14 01:27:32;;;;;;;4.53;2.10;;;9.60;94.90;;;;;;5032132;28;20064;-79
2021/11/14 01:29:59;;;;;;;3.75;1.63;;;9.60;94.90;;;;;;5030613;28;20421;-79
2021/11/14 01:32:26;;;;;;;4.65;2.00;;;9.60;94.90;;;;;;5029773;28;20044;-79
2021/11/14 01:34:53;;;;;;;3.85;1.92;;;9.60;94.80;;;;;;5033303;28;20045;-80
2021/11/14 01:37:21;;;;;;;3.88;1.77;;;9.60;94.80;;;;;;5032733;28;20037;-80
2021/11/14 01:39:48;;;;;;;4.43;2.13;;;9.60;94.80;;;;;;5013217;28;20107;-79
2021/11/14 01:42:15;;;;;;;4.22;1.85;;;9.50;94.80;;;;;;5049669;28;20079;-79
2021/11/14 01:44:42;;;;;;;3.78;1.73;;;9.50;94.80;;;;;;5032797;28;20057;-80
2021/11/14 01:47:09;;;;;;;3.95;1.73;;;9.50;94.80;;;;;;5009542;28;20044;-79
2021/11/14 01:49:36;;;;;;;3.78;1.42;;;9.50;94.80;;;;;;5031587;28;20037;-78
2021/11/14 01:52:04;;;;;;;5.07;2.25;;;9.50;94.80;;;;;;5031305;28;20045;-79
2021/11/14 01:54:31;;;;;;;4.72;2.22;;;9.60;94.80;;;;;;5030865;28;20037;-77
2021/11/14 01:56:59;;;;;;;3.70;1.83;;;9.60;94.80;;;;;;5019069;28;20045;-77
2021/11/14 01:59:26;;;;;;;3.47;1.75;;;9.60;94.80;;;;;;5047824;28;20090;-78
2021/11/14 02:01:53;;;;;;;4.38;1.90;;;9.60;95.10;;;;;;5044869;28;20064;-78
2021/11/14 02:04:20;;;;;;;4.22;1.73;;;9.60;94.80;;;;;;5017041;28;20087;-78
2021/11/14 02:06:47;;;;;;;4.30;1.80;;;9.60;94.80;;;;;;5013615;28;20134;-77
2021/11/14 02:09:15;;;;;;;4.32;1.73;;;9.60;94.80;;;;;;5028467;28;20048;-77
2021/11/14 02:11:42;;;;;;;5.15;2.13;;;9.60;94.70;;;;;;5031018;28;20033;-78
2021/11/14 02:14:09;;;;;;;5.47;2.67;;;9.60;94.70;;;;;;5036936;28;20757;-77
2021/11/14 02:16:36;;;;;;;4.60;1.90;;;9.60;94.80;;;;;;5025071;28;20088;-77
2021/11/14 02:19:04;;;;;;;3.50;1.60;;;9.50;94.80;;;;;;5031309;28;20047;-78
2021/11/14 02:21:32;;;;;;;4.90;2.08;;;9.40;94.80;;;;;;5032432;28;20075;-78
2021/11/14 02:23:59;;;;;;;6.57;2.47;;;9.50;94.90;;;;;;5050602;28;20087;-78
2021/11/14 02:26:26;;;;;;;6.30;2.45;;;9.50;94.90;;;;;;5044460;28;20064;-78
2021/11/14 02:28:54;;;;;;;3.50;1.70;;;9.50;95.00;;;;;;5018261;28;20142;-77
2021/11/14 02:31:23;;;;;;;4.40;2.05;;;9.50;94.90;;;;;;5032297;28;20036;-78
2021/11/14 02:33:50;;;;;;;6.65;2.65;;;9.60;94.90;;;;;;5035860;28;20072;-79
2021/11/14 02:36:19;;;;;;;4.85;2.58;;;9.60;94.90;;;;;;5019640;28;20049;-78
2021/11/14 02:38:46;;;;;;;6.82;3.08;;;9.60;94.80;;;;;;5048259;28;20098;-78
2021/11/14 02:41:13;;;;;;;4.30;1.90;;;9.70;94.80;;;;;;5051633;28;20037;-79
2021/11/14 02:43:43;;;;;;;6.25;2.53;;;9.70;94.80;;;;;;5048844;28;20039;-79
2021/11/14 02:46:11;;;;;;;6.43;3.00;;;9.70;94.80;;;;;;5028816;28;20041;-79
2021/11/14 02:48:40;;;;;;;5.13;2.30;;;9.80;94.80;;;;;;5042733;28;20493;-79
2021/11/14 02:51:11;;;;;;;7.63;3.15;;;9.80;94.80;;;;;;5046033;28;20123;-79
2021/11/14 02:53:38;;;;;;;4.50;1.92;;;9.80;94.70;;;;;;5032226;28;20052;-79
2021/11/14 02:56:05;;;;;;;5.93;3.35;;;9.80;94.70;;;;;;5020846;28;20071;-78
2021/11/14 02:58:33;;;;;;;6.10;3.03;;;9.90;94.70;;;;;;5013595;28;20052;-78
2021/11/14 03:01:16;;;;;;;5.43;2.55;;;9.90;94.70;;;;;;5046144;28;20080;-78
2021/11/14 03:03:44;;;;;;;;;;;9.90;94.70;;;;;;5033142;28;20094;-80
2021/11/14 03:06:12;;;;;;;6.88;3.75;;;9.90;94.60;;;;;;5044107;28;20054;-79
2021/11/14 03:08:39;;;;;;;8.95;4.15;;;9.90;94.70;;;;;;5046706;28;20140;-78
2021/11/14 03:11:07;;;;;;;7.80;3.63;;;9.90;94.60;;;;;;5015962;28;20037;-78
2021/11/14 03:13:34;;;;;;;7.03;3.42;;;9.90;94.60;;;;;;5015996;28;20052;-79
2021/11/14 03:16:05;;;;;;;7.82;3.75;;;9.90;94.60;;;;;;5025908;28;20507;-78
2021/11/14 03:18:32;;;;;;;6.45;3.22;;;10.00;94.60;;;;;;5029627;28;20052;-78
2021/11/14 03:21:01;;;;;;;7.75;3.00;;;10.00;94.60;;;;;;5028989;28;20053;-78
2021/11/14 03:23:29;;;;;;;6.18;2.72;;;10.00;94.70;;;;;;5048708;28;20068;-78
2021/11/14 03:25:58;;;;;;;5.53;2.72;;;10.00;94.70;;;;;;5018660;28;20103;-79
2021/11/14 03:28:27;;;;;;;9.68;4.32;;;10.00;94.60;;;;;;5028598;28;20034;-78
2021/11/14 03:30:55;;;;;;;8.55;3.47;;;10.00;94.60;;;;;;5043461;28;20547;-78
2021/11/14 03:33:23;;;;;;;7.78;3.17;;;10.10;94.60;;;;;;5033052;28;20397;-78
2021/11/14 03:36:01;;;;;;;8.10;3.47;;;10.00;94.60;;;;;;5023729;28;20095;-79
2021/11/14 03:38:38;;;;;;;7.88;3.92;;;10.10;94.60;;;;;;5048637;28;20037;-78
2021/11/14 03:41:07;;;;;;;8.85;3.40;;;10.10;94.60;;;;;;5050513;28;20052;-78
2021/11/14 03:43:35;;;;;;;8.65;3.53;;;10.10;94.60;;;;;;5038888;28;20040;-79
2021/11/14 03:46:03;;;;;;;9.75;5.25;;;10.10;94.60;;;;;;5030483;28;20069;-78
2021/11/14 03:48:32;;;;;;;11.55;5.15;;;10.10;94.60;;;;;;5043124;28;20041;-79
2021/11/14 03:50:59;;;;;;;7.60;3.85;;;10.10;94.60;;;;;;5034725;28;20045;-78
2021/11/14 03:53:26;;;;;;;8.77;3.90;;;10.10;94.60;;;;;;5032201;28;20052;-78
2021/11/14 03:55:54;;;;;;;9.20;4.80;;;10.10;94.60;;;;;;5047505;28;20098;-78
2021/11/14 03:58:22;;;;;;;10.40;4.60;;;10.10;94.60;;;;;;5045413;28;20103;-77
2021/11/14 04:00:56;;;;;;;8.93;4.25;;;10.10;94.60;;;;;;5047931;28;20470;-77
2021/11/14 04:03:26;;;;;;;10.48;5.55;;;10.10;94.60;;;;;;5041009;28;20135;-78
2021/11/14 04:05:53;;;;;;;9.18;4.32;;;10.10;94.60;;;;;;5016292;28;20053;-77
2021/11/14 04:08:24;;;;;;;9.13;3.90;;;10.10;94.60;;;;;;5029434;28;20087;-77
2021/11/14 04:10:54;;;;;;;9.65;4.97;;;10.10;94.60;;;;;;5028467;28;20060;-77
2021/11/14 04:13:22;;;;;;;9.60;4.43;;;10.20;94.60;;;;;;5030241;28;20041;-77
2021/11/14 04:15:50;;;;;;;6.13;3.10;;;10.20;94.60;;;;;;5026388;28;20053;-77
2021/11/14 04:18:17;;;;;;;9.77;4.22;;;10.20;94.60;;;;;;5024067;28;20053;-78
2021/11/14 04:20:45;;;;;;;9.95;4.03;;;10.20;94.60;;;;;;5014387;28;20048;-78
2021/11/14 04:23:13;;;;;;;9.23;4.28;;;10.20;94.60;;;;;;5031515;28;20038;-77
2021/11/14 04:25:40;;;;;;;7.90;3.08;;;10.20;94.90;;;;;;5040692;28;20066;-78
2021/11/14 04:28:09;;;;;;;11.07;4.35;;;10.20;94.60;;;;;;5014276;28;20042;-77
2021/11/14 04:30:36;;;;;;;9.38;4.25;;;10.20;94.60;;;;;;5030785;28;20892;-78
2021/11/14 04:33:04;;;;;;;9.07;4.07;;;10.20;94.60;;;;;;5047705;28;20127;-78
2021/11/14 04:35:31;;;;;;;9.63;4.68;;;10.20;94.60;;;;;;5028425;28;20056;-78
2021/11/14 04:37:58;;;;;;;8.52;3.70;;;10.20;94.60;;;;;;5044504;28;20128;-78
2021/11/14 04:40:26;;;;;;;11.23;5.50;;;10.20;94.60;;;;;;5030395;28;20468;-78
2021/11/14 04:42:55;;;;;;;9.25;4.45;;;10.20;94.60;;;;;;5030994;28;20048;-77
2021/11/14 04:45:22;;;;;;;10.15;4.85;;;10.20;94.60;;;;;;5029643;28;20044;-77
2021/11/14 04:47:49;;;;;;;12.07;6.20;;;10.20;94.60;;;;;;5026450;28;20038;-78
2021/11/14 04:50:19;;;;;;;11.88;6.45;;;10.20;94.60;;;;;;5045515;28;20091;-77
2021/11/14 04:52:46;;;;;;;12.48;5.57;;;10.20;94.50;;;;;;5045847;28;20851;-77
2021/11/14 04:55:15;;;;;;;12.32;6.07;;;10.20;94.50;;;;;;5030668;28;20041;-78
2021/11/14 04:57:42;;;;;;;11.93;5.43;;;10.20;94.50;;;;;;5019765;28;20045;-78
2021/11/14 05:00:13;;;;;;;10.88;5.32;;;10.20;94.60;;;;;;5040098;28;20126;-77
2021/11/14 05:02:40;;;;;;;11.85;6.13;;;10.20;94.60;;;;;;5025856;28;20123;-77
2021/11/14 05:05:08;;;;;;;13.30;6.55;;;10.20;94.60;;;;;;5030252;28;20041;-78
2021/11/14 05:07:36;;;;;;;12.85;6.22;;;10.20;94.60;;;;;;5045233;28;20441;-77
2021/11/14 05:10:05;;;;;;;11.77;6.20;;;10.20;94.60;;;;;;5049752;28;20041;-77
2021/11/14 05:12:32;;;;;;;13.13;6.13;;;10.20;94.50;;;;;;5052494;28;20476;-77
2021/11/14 05:14:59;;;;;;;15.85;6.85;;;10.20;94.50;;;;;;5030579;28;20087;-77
2021/11/14 05:17:26;;;;;;;12.85;7.13;;;10.20;94.50;;;;;;5018936;28;20393;-77
2021/11/14 05:19:53;;;;;;;12.45;6.65;;;10.20;94.50;;;;;;5035914;28;20049;-77
2021/11/14 05:22:20;;;;;;;10.88;5.18;;;10.20;94.50;;;;;;5001862;28;20701;-78
2021/11/14 05:24:47;;;;;;;10.95;5.90;;;10.20;94.50;;;;;;5016469;28;20071;-77
2021/11/14 05:27:15;;;;;;;13.00;6.10;;;10.20;94.50;;;;;;4999619;28;20504;-78
2021/11/14 05:29:42;;;;;;;10.63;5.30;;;10.20;94.50;;;;;;5037189;28;20046;-77
2021/11/14 05:32:10;;;;;;;13.40;5.75;;;10.20;94.50;;;;;;5017205;28;20067;-77
2021/11/14 05:34:37;;;;;;;10.98;5.18;;;10.20;94.50;;;;;;5031794;28;20114;-77
2021/11/14 05:37:05;;;;;;;12.30;6.25;;;10.20;94.50;;;;;;5033299;28;20463;-77
2021/11/14 05:39:32;;;;;;;11.20;5.55;;;10.20;94.50;;;;;;5046185;28;20401;-77
2021/11/14 05:41:59;;;;;;;13.13;5.82;;;10.20;94.50;;;;;;5018185;28;20045;-78
2021/11/14 05:44:26;;;;;;;11.68;5.90;;;10.20;94.50;;;;;;5016165;28;20045;-78
2021/11/14 05:46:53;;;;;;;15.10;6.45;;;10.30;94.50;;;;;;5016774;28;20497;-78
2021/11/14 05:49:20;;;;;;;10.75;5.50;;;10.20;94.50;;;;;;5018685;28;20076;-77
2021/11/14 05:51:47;;;;;;;12.02;7.00;;;10.30;94.50;;;;;;5052703;28;20447;-77
2021/11/14 05:54:14;;;;;;;11.07;5.47;;;10.30;94.50;;;;;;5020671;28;20076;-78
2021/11/14 05:56:42;;;;;;;16.00;6.93;;;10.30;94.50;;;;;;5033170;28;20061;-77
2021/11/14 06:02:06;;;;;;;12.02;5.40;;;10.30;94.50;;;;;;5036928;28;20083;-77
2021/11/14 06:07:19;;;;;;;13.02;6.03;;;10.30;94.50;;;;;;5044365;28;20044;-77
2021/11/14 06:09:46;;;;;;;11.60;5.70;;;10.30;94.50;;;;;;5050765;28;20044;-77
2021/11/14 06:12:13;;;;;;;13.82;5.68;;;10.40;94.50;;;;;;5015074;28;20465;-77
2021/11/14 06:14:40;;;;;;;11.07;5.32;;;10.40;94.50;;;;;;5033462;28;20102;-77
2021/11/14 06:17:07;;;;;;;11.55;4.97;;;10.30;94.40;;;;;;5043604;28;20095;-77
2021/11/14 06:19:35;;;;;;;14.88;6.55;;;10.40;94.40;;;;;;5015117;28;20049;-77
2021/11/14 06:22:02;;;;;;;11.13;5.38;;;10.40;94.40;;;;;;5016409;28;20045;-78
2021/11/14 06:24:29;;;;;;;12.88;5.88;;;10.30;94.40;;;;;;5049207;28;20057;-77
2021/11/14 06:26:56;;;;;;;11.85;5.45;;;10.30;94.40;;;;;;5024781;28;20537;-77
2021/11/14 06:29:23;;;;;;;11.45;5.88;;;10.30;94.40;;;;;;5032033;28;20037;-77
2021/11/14 06:31:50;;;;;;;10.00;5.13;;;10.30;94.40;;;;;;5044452;28;20048;-77
2021/11/14 06:34:17;;;;;;;10.77;5.47;;;10.30;94.40;;;;;;5013192;28;20061;-78
2021/11/14 06:36:44;;;;;;;12.52;6.07;;;10.30;94.60;;;;;;5015084;28;20385;-78
2021/11/14 06:39:11;;;;;;;11.38;6.03;;;10.40;94.40;;;;;;5009292;28;20048;-78
2021/11/14 06:41:38;;;;;;;10.65;5.68;;;10.40;94.40;;;;;;5016933;28;20133;-77
2021/11/14 06:44:05;;;;;;;11.60;5.68;;;10.40;94.40;;;;;;5030737;28;20686;-76
2021/11/14 06:46:32;;;;;;;10.63;4.90;;;10.40;94.40;;;;;;5043261;28;20042;-77
2021/11/14 06:48:59;;;;;;;14.20;6.30;;;10.30;94.40;;;;;;4993500;28;20041;-77
2021/11/14 06:51:26;;;;;;;11.02;5.10;;;10.40;94.40;;;;;;5017801;28;20045;-77
2021/11/14 06:53:53;;;;;;;10.88;6.13;;;10.40;94.40;;;;;;5031456;28;20041;-78
2021/11/14 06:56:21;;;;;;;12.50;5.20;;;10.40;94.40;;;;;;5045890;28;20455;-77
2021/11/14 06:58:49;;;;;;;11.18;5.65;;;10.40;94.40;;;;;;5032175;28;20044;-77
2021/11/14 07:01:16;;;;;;;10.95;5.65;;;10.40;94.40;;;;;;5045378;28;20053;-77
2021/11/14 07:03:45;;;;;;;13.07;5.55;;;10.40;94.40;;;;;;5031507;28;20128;-77
2021/11/14 07:06:12;;;;;;;13.27;5.88;;;10.40;94.40;;;;;;5042462;28;20142;-77
2021/11/14 07:08:39;;;;;;;9.27;4.47;;;10.40;94.40;;;;;;5032367;28;20063;-77
2021/11/14 07:11:06;;;;;;;11.70;5.20;;;10.40;94.30;;;;;;5029803;28;20424;-78
2021/11/14 07:13:33;;;;;;;10.05;5.45;;;10.30;94.30;;;;;;5048449;28;20617;-77
2021/11/14 07:16:00;;;;;;;11.35;5.57;;;10.40;94.30;;;;;;5020289;28;20072;-77
2021/11/14 07:18:27;;;;;;;10.50;4.68;;;10.30;94.30;;;;;;5026930;28;20068;-77
2021/11/14 07:20:54;;;;;;;9.93;4.82;;;10.30;94.30;;;;;;5026311;28;20559;-77
2021/11/14 07:23:21;;;;;;;11.27;4.93;;;10.40;94.30;;;;;;5049614;28;20041;-77
2021/11/14 07:25:48;;;;;;;8.50;4.57;;;10.30;94.30;;;;;;5011339;28;20128;-77
2021/11/14 07:28:15;;;;;;;8.13;4.35;;;10.40;94.30;;;;;;5031745;28;20048;-77
2021/11/14 07:30:42;;;;;;;11.10;4.85;;;10.40;94.30;;;;;;5020861;28;20119;-78
2021/11/14 07:33:14;;;;;;;11.68;5.57;;;10.30;94.30;;;;;;5028191;28;20574;-77
2021/11/14 07:35:41;;;;;;;10.15;4.82;;;10.40;94.30;;;;;;5035037;28;20068;-77
2021/11/14 07:38:08;;;;;;;10.65;5.28;;;10.30;94.30;;;;;;5037192;28;20042;-77
2021/11/14 07:40:35;;;;;;;11.63;5.00;;;10.40;94.30;;;;;;5024835;28;20795;-78
2021/11/14 07:43:02;;;;;;;10.07;4.13;;;10.40;94.30;;;;;;5005023;28;20048;-77
2021/11/14 07:45:29;;;;;;;9.57;4.30;;;10.40;94.30;;;;;;5036713;28;20151;-77
2021/11/14 07:47:57;;;;;;;11.00;4.45;;;10.40;94.30;;;;;;5034702;28;20045;-77
2021/11/14 07:50:28;;;;;;;8.27;4.00;;;10.40;94.30;;;;;;5039600;28;20045;-77
2021/11/14 07:52:57;;;;;;;7.05;3.17;;;10.40;94.30;;;;;;5047300;28;20037;-77
2021/11/14 07:55:24;;;;;;;10.90;5.53;;;10.40;94.30;;;;;;5034145;28;20041;-78
2021/11/14 07:57:51;;;;;;;9.52;4.57;;;10.40;94.30;;;;;;5040270;28;20041;-77
2021/11/14 08:00:22;;;;;;;11.18;4.60;;;10.40;94.20;;;;;;5038826;28;20096;-77
2021/11/14 08:02:50;;;;;;;9.45;4.47;;;10.40;94.20;;;;;;5037801;28;20456;-77
2021/11/14 08:05:18;;;;;;;13.07;5.45;;;10.40;94.20;;;;;;5019610;28;20092;-77
2021/11/14 08:07:46;;;;;;;11.10;4.82;;;10.40;94.20;;;;;;5037462;28;20064;-77
2021/11/14 08:10:14;;;;;;;11.40;5.68;;;10.40;94.20;;;;;;5025108;28;20029;-77
2021/11/14 08:12:42;;;;;;;10.27;5.22;;;10.40;94.20;;;;;;5043674;28;20048;-77
2021/11/14 08:15:09;;;;;;;11.63;5.43;;;10.30;94.10;;;;;;5013651;28;20076;-78
2021/11/14 08:17:37;;;;;;;11.20;5.82;;;10.40;94.20;;;;;;5043761;28;20045;-77
2021/11/14 08:20:05;;;;;;;12.50;5.03;;;10.40;94.20;;;;;;5045243;28;20041;-78
2021/11/14 08:22:33;;;;;;;11.88;5.28;;;10.40;94.10;;;;;;5031336;28;20218;-78
2021/11/14 08:25:01;;;;;;;11.65;5.22;;;10.40;94.20;;;;;;5010882;28;20082;-77
2021/11/14 08:27:32;;;;;;;9.60;3.47;;;10.40;94.10;;;;;;5049610;28;20045;-79
2021/11/14 08:30:00;;;;;;;11.68;5.68;;;10.40;94.10;;;;;;5030644;28;20071;-78
2021/11/14 08:32:27;;;;;;;13.25;5.10;;;10.40;94.10;;;;;;5041221;28;20037;-77
2021/11/14 08:34:55;;;;;;;12.02;4.82;;;10.40;94.10;;;;;;5046379;28;20057;-78
2021/11/14 08:37:22;;;;;;;10.80;5.20;;;10.50;94.10;;;;;;5037307;28;20045;-77
2021/11/14 08:39:49;;;;;;;9.52;5.20;;;10.50;94.10;;;;;;5029650;28;20044;-78
2021/11/14 08:42:17;;;;;;;9.55;4.47;;;10.40;94.00;;;;;;5030001;28;20084;-78
2021/11/14 08:44:44;;;;;;;11.10;4.78;;;10.50;94.00;;;;;;5033034;28;20627;-79
2021/11/14 08:47:13;;;;;;;9.98;5.32;;;10.50;94.00;;;;;;5034666;28;20087;-79
2021/11/14 08:49:40;;;;;;;10.70;5.00;;;10.50;94.30;;;;;;5034098;28;20151;-78
2021/11/14 08:52:08;;;;;;;9.80;4.70;;;10.50;94.00;;;;;;5053775;28;20160;-78
2021/11/14 08:54:41;;;;;;;8.35;3.80;;;10.50;93.90;;;;;;5051641;28;20140;-76
2021/11/14 08:57:09;;;;;;;7.60;4.15;;;10.50;94.00;;;;;;5045081;28;20389;-76
2021/11/14 08:59:37;;;;;;;8.90;3.72;;;10.60;94.00;;;;;;5034203;28;20145;-75
2021/11/14 09:02:04;;;;;;;6.93;3.15;;;10.60;94.00;;;;;;5034062;28;20076;-76
2021/11/14 09:04:31;;;;;;;9.60;4.22;;;10.60;94.00;;;;;;5035434;28;20044;-76
2021/11/14 09:06:59;;;;;;;10.35;5.80;;;10.60;93.90;;;;;;5035459;28;20039;-76
2021/11/14 09:09:27;;;;;;;10.10;4.35;;;10.60;93.90;;;;;;5046050;28;20087;-75
2021/11/14 09:11:54;;;;;;;14.02;5.60;;;10.60;93.90;;;;;;5045541;28;20036;-76
2021/11/14 09:14:23;;;;;;;10.02;5.32;;;10.60;93.80;;;;;;5033508;28;20431;-75
2021/11/14 09:16:51;;;;;;;11.98;4.78;;;10.70;93.80;;;;;;5029149;28;20076;-76
2021/11/14 09:19:19;;;;;;;12.90;5.65;;;10.70;93.80;;;;;;5041308;28;20049;-76
2021/11/14 09:21:47;;;;;;;13.80;6.25;;;10.70;93.80;;;;;;5039162;28;20076;-76
2021/11/14 09:24:15;;;;;;;11.40;6.47;;;10.70;93.80;;;;;;5022093;28;20094;-75
2021/11/14 09:26:42;;;;;;;9.35;4.70;;;10.70;93.70;;;;;;5041860;28;20069;-77
2021/11/14 09:29:12;;;;;;;10.63;4.60;;;10.80;93.80;;;;;;5031067;28;20095;-75
2021/11/14 09:31:39;;;;;;;11.60;5.35;;;10.80;93.70;;;;;;5043772;28;20075;-77
2021/11/14 09:34:07;;;;;;;10.45;4.78;;;10.80;93.70;;;;;;5002643;28;20071;-78
2021/11/14 09:36:35;;;;;;;9.43;4.30;;;10.80;93.70;;;;;;5018378;28;20447;-77
2021/11/14 09:39:11;;;;;;;8.75;3.53;;;10.80;93.70;;;;;;5043208;28;20085;-75
2021/11/14 09:41:48;;;;;;;8.50;4.05;;;10.80;93.70;;;;;;5035266;28;20045;-75
2021/11/14 09:44:18;;;;;;;7.32;3.33;;;10.90;93.70;;;;;;5046226;28;20136;-76
2021/11/14 09:46:57;;;;;;;9.35;4.28;;;10.90;93.70;;;;;;5048410;28;20679;-76
2021/11/14 09:49:27;;;;;;;9.20;4.07;;;10.90;93.60;;;;;;5042154;28;20131;-77
2021/11/14 09:51:57;;;;;;;10.27;4.90;;;10.90;93.60;;;;;;5028079;28;20107;-77
2021/11/14 09:54:26;;;;;;;9.48;4.57;;;10.90;93.60;;;;;;5030991;28;20688;-78
2021/11/14 09:56:55;;;;;;;8.98;4.50;;;10.90;93.60;;;;;;5045550;28;20393;-78
2021/11/14 09:59:23;;;;;;;8.05;4.20;;;10.90;93.60;;;;;;5011392;28;20048;-79
2021/11/14 10:01:54;;;;;;;10.00;4.63;;;10.90;93.60;;;;;;5046119;28;20493;-78
2021/11/14 10:04:22;;;;;;;10.70;4.90;;;10.90;93.60;;;;;;5044501;28;20564;-79
2021/11/14 10:07:06;;;;;;;12.23;5.50;;;10.90;93.50;;;;;;5035203;28;20094;-78
2021/11/14 10:09:45;;;;;;;9.35;5.10;;;10.90;93.50;;;;;;5048703;28;20040;-75
2021/11/14 10:12:28;;;;;;;12.43;5.90;;;10.90;93.50;;;;;;5048263;28;20041;-75
2021/11/14 10:15:12;;;;;;;9.48;4.43;;;10.90;93.50;;;;;;5047979;28;20037;-76
2021/11/14 10:17:51;;;;;;;9.82;4.57;;;10.90;93.70;;;;;;5048391;28;20088;-78
2021/11/14 10:20:30;;;;;;;10.68;4.45;;;10.90;93.50;;;;;;5048826;28;20091;-76
2021/11/14 10:23:06;;;;;;;10.60;5.85;;;10.90;93.50;;;;;;5050013;28;20048;-74
2021/11/14 10:25:33;;;;;;;9.68;5.32;;;10.90;93.40;;;;;;5047297;28;20060;-74
2021/11/14 10:28:02;;;;;;;9.55;4.88;;;10.90;93.40;;;;;;5045536;28;20123;-73
2021/11/14 10:30:33;;;;;;;11.57;5.70;;;10.90;93.40;;;;;;5048317;28;20037;-74
2021/11/14 10:33:05;;;;;;;10.02;5.22;;;10.90;93.40;;;;;;5050964;28;20037;-74
2021/11/14 10:35:34;;;;;;;12.77;5.45;;;10.90;93.40;;;;;;5044180;28;20041;-73
2021/11/14 10:38:07;;;;;;;10.20;5.00;;;10.90;93.40;;;;;;5041251;28;21379;-74
2021/11/14 10:40:44;;;;;;;9.15;4.47;;;10.90;93.40;;;;;;5043723;28;20041;-74
2021/11/14 10:43:11;;;;;;;8.82;4.32;;;11.00;93.40;;;;;;5044839;28;20041;-74
2021/11/14 10:45:41;;;;;;;8.48;3.85;;;11.00;93.40;;;;;;5013496;28;20127;-74
2021/11/14 10:48:12;;;;;;;8.63;3.78;;;11.00;93.40;;;;;;5043248;28;20045;-74
2021/11/14 10:50:42;;;;;;;9.15;4.38;;;11.10;93.40;;;;;;5048596;28;20159;-74
2021/11/14 10:53:13;;;;;;;8.57;3.95;;;11.10;93.30;;;;;;5044171;28;20075;-73
2021/11/14 10:55:46;;;;;;;11.30;4.53;;;11.10;93.30;;;;;;5040848;28;20768;-74
2021/11/14 10:58:14;;;;;;;7.22;4.13;;;11.10;93.20;;;;;;5039050;28;20045;-72
2021/11/14 11:00:44;;;;;;;11.07;5.07;;;11.10;93.20;;;;;;5037436;28;20480;-75
2021/11/14 11:03:12;;;;;;;8.60;4.15;;;11.10;93.20;;;;;;5041887;28;20520;-74
2021/11/14 11:05:40;;;;;;;9.32;4.55;;;11.10;93.20;;;;;;5044821;28;20076;-74
2021/11/14 11:08:22;;;;;;;9.45;4.80;;;11.20;93.20;;;;;;5029248;28;20114;-79
2021/11/14 11:10:51;;;;;;;;;;;11.20;93.10;;;;;;5045493;28;20135;-79
2021/11/14 11:13:40;;;;;;;11.85;5.53;;;11.10;93.10;;;;;;5034721;28;19929;-74
2021/11/14 11:16:14;;;;;;;13.10;6.38;;;11.10;93.10;;;;;;5041301;28;20044;-74
2021/11/14 11:18:44;;;;;;;11.75;5.78;;;11.10;93.10;;;;;;5017990;28;20056;-74
2021/11/14 11:21:13;;;;;;;13.05;5.05;;;11.10;93.10;;;;;;5060009;28;20045;-79
2021/11/14 11:23:45;;;;;;;14.75;7.30;;;11.10;93.10;;;;;;5039315;28;20513;-79
2021/11/14 11:26:18;;;;;;;14.98;6.95;;;11.10;93.00;;;;;;5038689;28;20048;-80
2021/11/14 11:28:47;;;;;;;11.90;6.47;;;11.10;93.00;;;;;;5042571;28;20033;-80
2021/11/14 11:31:22;;;;;;;13.02;5.70;;;11.10;93.00;;;;;;5054440;28;20143;-80
2021/11/14 11:33:55;;;;;;;12.02;5.75;;;11.20;93.00;;;;;;5045627;28;20134;-80
2021/11/14 11:36:24;;;;;;;15.55;7.90;;;11.20;93.00;;;;;;5048824;28;20551;-77
2021/11/14 11:38:51;;;;;;;14.32;6.20;;;11.20;92.90;;;;;;5044316;28;20041;-79
2021/11/14 11:41:18;;;;;;;11.52;5.95;;;11.20;92.90;;;;;;5048356;28;20453;-80
2021/11/14 11:43:49;;;;;;;12.38;5.70;;;11.30;92.80;;;;;;5045464;28;20076;-79
2021/11/14 11:46:27;;;;;;;10.60;4.75;;;11.30;92.80;;;;;;5048704;28;20131;-78
2021/11/14 11:49:03;;;;;;;9.55;4.55;;;11.40;92.80;;;;;;5031697;28;20041;-77
2021/11/14 11:51:41;;;;;;;11.70;6.18;;;11.40;92.70;;;;;;5045626;28;20037;-77
2021/11/14 11:54:15;;;;;;;12.40;5.22;;;11.50;92.70;;;;;;5040811;28;20110;-77
2021/11/14 11:56:50;;;;;;;12.27;5.47;;;11.50;92.70;;;;;;5048258;28;20099;-77
2021/11/14 11:59:19;;;;;;;10.68;4.88;;;11.40;92.60;;;;;;5064200;28;20075;-77
2021/11/14 12:01:51;;;;;;;10.07;4.82;;;11.50;92.70;;;;;;5047200;28;20049;-76
2021/11/14 12:04:25;;;;;;;11.88;5.15;;;11.60;92.60;;;;;;5047473;28;20049;-77
2021/11/14 12:06:57;;;;;;;10.73;5.10;;;11.60;92.60;;;;;;5051188;28;20432;-78
2021/11/14 12:09:26;;;;;;;10.20;4.72;;;11.70;92.60;;;;;;5032115;28;20091;-76
2021/11/14 12:11:54;;;;;;;8.93;3.80;;;11.70;92.60;;;;;;5049371;28;20060;-77
2021/11/14 12:14:30;;;;;;;11.82;6.07;;;11.70;92.50;;;;;;5050916;28;20072;-76
2021/11/14 12:17:05;;;;;;;11.35;5.68;;;11.70;92.50;;;;;;5051162;28;20044;-77
2021/11/14 12:19:35;;;;;;;11.32;4.80;;;11.70;92.50;;;;;;5049671;28;20095;-76
2021/11/14 12:22:06;;;;;;;10.93;5.18;;;11.80;92.50;;;;;;5047742;28;20044;-77
2021/11/14 12:24:51;;;;;;;10.18;5.53;;;11.70;92.40;;;;;;5046391;28;20115;-77
2021/11/14 12:27:27;;;;;;;10.27;6.28;;;11.70;92.30;;;;;;5050481;28;20592;-77
2021/11/14 12:30:02;;;;;;;10.50;5.82;;;11.80;92.40;;;;;;5047901;28;20584;-77
2021/11/14 12:32:40;;;;;;;12.35;5.60;;;11.70;92.40;;;;;;5045653;28;20106;-72
2021/11/14 12:35:20;;;;;;;9.82;4.60;;;11.80;92.30;;;;;;5049333;28;20593;-73
2021/11/14 12:38:02;;;;;;;10.48;4.93;;;11.70;92.40;;;;;;5044588;28;20061;-73
2021/11/14 12:40:31;;;;;;;11.65;5.50;;;11.80;92.40;;;;;;5048261;28;20057;-72
2021/11/14 12:43:14;;;;;;;11.63;6.75;;;11.80;92.30;;;;;;5043674;28;20131;-73
2021/11/14 12:45:50;;;;;;;11.20;5.40;;;11.80;92.30;;;;;;5041339;28;20044;-72
2021/11/14 12:48:21;;;;;;;9.05;4.63;;;11.80;92.30;;;;;;5045136;28;20641;-72
2021/11/14 12:50:48;;;;;;;11.00;5.60;;;11.80;92.30;;;;;;5046507;28;20473;-72
2021/11/14 12:53:18;;;;;;;10.55;5.30;;;11.80;92.30;;;;;;5018057;28;20041;-72
2021/11/14 12:55:45;;;;;;;11.25;5.15;;;11.80;92.30;;;;;;5047094;28;20049;-72
2021/11/14 12:58:15;;;;;;;11.52;5.57;;;11.80;92.30;;;;;;5045712;28;20384;-73
2021/11/14 13:00:54;;;;;;;9.70;4.75;;;11.80;92.50;;;;;;5044339;28;20575;-73